Vsevolozhsk, Russia
Current Conditions -  °F | °C
As of 6:00 PM on Friday 24 Oct 2014 (Local Time) from ULLI Reporting Station
Clear Clear  
Wind Chill: 24°   Ceiling: Unl
Heat Index: 30°   Visibility: 6mi
Dew Point: 23°   Wind: 7mph
Humidity: 75%   Direction: 140°SE
Pressure: 30.62"   Gusts: NA
Location:  60.02°N, 30.68°E
Report Text: ULLI 241500Z 14003MPS CAVOK M01/M05 Q1037 60190045 10190060NOSIG
Loading
Personal Weather Stations






























Interactive Weather Map
Tropical Storm Tracking
New forecast layout! Learn more

10-Day Weather Forecast

Advertisements
Track Severe Weather on mobile